Time;durP1;ratioP1;P1;durP2;ratioP2;P2;SDS_P1;SDS_P2;PMS_P1;PMS_P2;Temp;Humidity;BMP_temperature;BMP_pressure;BME280_temperature;BME280_humidity;BME280_pressure;Samples;Min_cycle;Max_cycle;Signal;HPM_P1;HPM_P2
2022/11/28 00:01:19;;;;;;;19.13;9.38;;;;;;;6.07;100.00;101005.50;4993231;28;20030;-78
2022/11/28 00:03:44;;;;;;;17.98;9.38;;;;;;;6.08;100.00;100999.47;4985466;28;20101;-78
2022/11/28 00:06:10;;;;;;;19.38;9.35;;;;;;;6.09;100.00;101003.75;4992149;28;20110;-78
2022/11/28 00:08:35;;;;;;;22.65;9.18;;;;;;;6.11;100.00;100999.47;4989182;28;20038;-78
2022/11/28 00:11:09;;;;;;;18.88;9.32;;;;;;;6.13;100.00;100997.78;4985558;28;20481;-78
2022/11/28 00:13:35;;;;;;;19.77;8.90;;;;;;;6.12;100.00;100984.91;4988805;28;20034;-78
2022/11/28 00:16:03;;;;;;;19.10;9.07;;;;;;;6.16;100.00;100992.59;4975575;28;20037;-78
2022/11/28 00:18:30;;;;;;;16.35;8.82;;;;;;;6.18;100.00;100995.16;4991852;28;20037;-78
2022/11/28 00:21:07;;;;;;;17.75;8.80;;;;;;;6.19;100.00;100991.75;4980296;28;20489;-78
2022/11/28 00:23:33;;;;;;;19.30;8.88;;;;;;;6.22;100.00;100991.72;4990142;28;20109;-78
2022/11/28 00:26:09;;;;;;;18.50;9.07;;;;;;;6.24;100.00;100993.44;4991021;28;20058;-78
2022/11/28 00:28:35;;;;;;;18.55;8.70;;;;;;;6.26;100.00;100986.56;4989866;28;21062;-78
2022/11/28 00:31:00;;;;;;;18.48;8.43;;;;;;;6.30;100.00;100977.09;4989899;28;20030;-78
2022/11/28 00:33:26;;;;;;;16.40;8.50;;;;;;;6.31;100.00;100977.09;4991363;28;20133;-78
2022/11/28 00:35:57;;;;;;;18.98;8.27;;;;;;;6.35;100.00;100975.34;4979430;28;20536;-78
2022/11/28 00:38:23;;;;;;;15.75;8.48;;;;;;;6.35;100.00;100981.34;4990305;28;20022;-78
2022/11/28 00:40:56;;;;;;;17.67;8.85;;;;;;;6.38;100.00;100974.50;4989212;28;20028;-78
2022/11/28 00:43:21;;;;;;;16.67;7.80;;;;;;;6.39;100.00;100971.06;4990502;28;20398;-78
2022/11/28 00:45:47;;;;;;;16.75;8.60;;;;;;;6.40;100.00;100963.34;4991062;28;20513;-78
2022/11/28 00:48:12;;;;;;;15.52;7.63;;;;;;;6.42;100.00;100979.59;4991586;28;20022;-78
2022/11/28 00:50:37;;;;;;;16.63;7.60;;;;;;;6.44;100.00;100971.88;4990071;28;20026;-78
2022/11/28 00:53:03;;;;;;;15.75;8.25;;;;;;;6.45;100.00;100969.31;4988230;28;20026;-78
2022/11/28 00:55:28;;;;;;;14.23;7.25;;;;;;;6.49;100.00;100971.00;4991271;28;20080;-78
2022/11/28 00:57:54;;;;;;;13.45;7.07;;;;;;;6.51;100.00;100968.41;4990548;28;20022;-78
2022/11/28 01:00:20;;;;;;;17.42;7.68;;;;;;;6.52;100.00;100963.28;4990481;28;20026;-78
2022/11/28 01:02:45;;;;;;;14.35;7.57;;;;;;;6.52;100.00;100958.13;4989119;28;20030;-78
2022/11/28 01:05:10;;;;;;;13.68;7.07;;;;;;;6.54;100.00;100953.81;4991691;28;20028;-78
2022/11/28 01:07:41;;;;;;;16.13;7.53;;;;;;;6.57;100.00;100950.34;4980878;28;20042;-77
2022/11/28 01:10:07;;;;;;;14.13;7.22;;;;;;;6.59;100.00;100958.94;4989341;28;20583;-77
2022/11/28 01:12:33;;;;;;;14.25;7.30;;;;;;;6.59;100.00;100954.66;4989001;28;20101;-77
2022/11/28 01:14:58;;;;;;;14.70;7.07;;;;;;;6.62;100.00;100951.19;4989428;28;20030;-77
2022/11/28 01:17:24;;;;;;;15.20;7.25;;;;;;;6.63;100.00;100969.22;4972832;28;20053;-77
2022/11/28 01:19:49;;;;;;;13.65;7.78;;;;;;;6.65;100.00;100961.47;4989613;28;20042;-77
2022/11/28 01:22:14;;;;;;;15.07;7.13;;;;;;;6.64;100.00;100955.47;4989645;28;20108;-77
2022/11/28 01:24:40;;;;;;;14.55;7.53;;;;;;;6.66;100.00;100958.91;4990846;28;20065;-77
2022/11/28 01:27:07;;;;;;;14.00;6.82;;;;;;;6.68;100.00;100961.47;4990361;28;20053;-77
2022/11/28 01:29:32;;;;;;;12.95;6.95;;;;;;;6.69;100.00;100961.44;4990087;28;20041;-77
2022/11/28 01:31:57;;;;;;;14.70;6.90;;;;;;;6.70;100.00;100958.00;4991070;28;20026;-77
2022/11/28 01:34:23;;;;;;;12.55;6.75;;;;;;;6.68;100.00;100949.44;4990020;28;20034;-77
2022/11/28 01:36:48;;;;;;;13.13;6.82;;;;;;;6.73;100.00;100957.16;4989602;28;20037;-77
2022/11/28 01:39:14;;;;;;;12.95;6.72;;;;;;;6.73;100.00;100955.44;4990543;28;20028;-77
2022/11/28 01:41:40;;;;;;;16.10;7.35;;;;;;;6.75;100.00;100960.56;4990026;28;20489;-77
2022/11/28 01:44:05;;;;;;;15.02;7.28;;;;;;;6.74;100.00;100957.13;4990149;28;20493;-77
2022/11/28 01:46:31;;;;;;;12.93;7.03;;;;;;;6.77;100.00;100956.25;4990072;28;20536;-77
2022/11/28 01:49:06;;;;;;;13.98;7.43;;;;;;;6.73;100.00;100952.84;4988340;28;20033;-77
2022/11/28 01:51:32;;;;;;;16.85;6.63;;;;;;;6.75;100.00;100958.81;4989818;28;20333;-77
2022/11/28 01:53:58;;;;;;;14.63;6.82;;;;;;;6.74;100.00;100956.28;4985714;28;20026;-77
2022/11/28 01:56:27;;;;;;;13.02;6.65;;;;;;;6.74;100.00;100958.84;4989174;28;20274;-77
2022/11/28 01:59:01;;;;;;;14.40;7.00;;;;;;;6.76;100.00;100959.69;4988979;28;20038;-77
2022/11/28 02:01:26;;;;;;;14.20;7.20;;;;;;;6.76;100.00;100949.38;4988215;28;20041;-77
2022/11/28 02:03:53;;;;;;;12.43;7.05;;;;;;;6.77;100.00;100955.38;4989370;28;20080;-77
2022/11/28 02:06:22;;;;;;;14.13;6.72;;;;;;;6.77;100.00;100956.25;4988867;28;20410;-77
2022/11/28 02:08:54;;;;;;;14.20;7.10;;;;;;;6.78;100.00;100949.38;4972369;28;20101;-77
2022/11/28 02:11:41;;;;;;;14.88;6.82;;;;;;;6.79;100.00;100956.25;4988465;28;20060;-77
2022/11/28 02:14:12;;;;;;;14.27;7.45;;;;;;;6.78;100.00;100944.22;4986465;28;20068;-77
2022/11/28 02:16:37;;;;;;;15.98;7.22;;;;;;;6.78;100.00;100942.50;4982251;28;20038;-77
2022/11/28 02:19:47;;;;;;;13.38;7.15;;;;;;;6.80;100.00;100947.66;4990140;28;20038;-77
2022/11/28 02:22:36;;;;;;;15.32;7.40;;;;;;;6.79;100.00;100940.78;4989964;28;20038;-77
2022/11/28 02:25:39;;;;;;;14.82;7.75;;;;;;;6.80;100.00;100945.06;4985452;28;20031;-78
2022/11/28 02:28:10;;;;;;;12.60;7.22;;;;;;;6.79;100.00;100933.06;4984944;28;20079;-78
2022/11/28 02:31:23;;;;;;;16.90;7.30;;;;;;;6.80;100.00;100938.22;4986044;28;20034;-78
2022/11/28 02:33:54;;;;;;;14.38;7.05;;;;;;;6.79;100.00;100930.47;4962564;28;20048;-78
2022/11/28 02:36:32;;;;;;;13.38;6.75;;;;;;;6.77;100.00;100925.34;4987905;28;20038;-78
2022/11/28 02:39:23;;;;;;;13.30;6.90;;;;;;;6.79;100.00;100935.63;4986598;28;20054;-78
2022/11/28 02:41:48;;;;;;;11.70;6.53;;;;;;;6.79;100.00;100935.63;4973527;28;20114;-78
2022/11/28 02:44:17;;;;;;;18.00;6.93;;;;;;;6.78;100.00;100932.19;4968400;28;20117;-78
2022/11/28 02:46:57;;;;;;;12.07;6.25;;;;;;;6.80;100.00;100932.19;4991072;28;20281;-78
2022/11/28 02:49:27;;;;;;;13.27;6.60;;;;;;;6.78;100.00;100929.63;4989027;28;20393;-78
2022/11/28 02:51:59;;;;;;;11.20;5.63;;;;;;;6.80;100.00;100933.06;4988953;28;20489;-79
2022/11/28 02:54:26;;;;;;;12.43;6.07;;;;;;;6.79;100.00;100928.75;4969051;28;20045;-78
2022/11/28 02:56:54;;;;;;;10.15;5.60;;;;;;;6.79;100.00;100935.63;4988733;28;20389;-78
2022/11/28 02:59:37;;;;;;;11.35;5.53;;;;;;;6.79;100.00;100926.19;4992534;28;20030;-78
2022/11/28 03:02:29;;;;;;;10.77;5.22;;;;;;;6.79;100.00;100927.91;4993492;28;20041;-78
2022/11/28 03:05:21;;;;;;;8.70;4.50;;;;;;;6.76;100.00;100923.63;4991101;28;20035;-78
2022/11/28 03:08:10;;;;;;;10.07;4.85;;;;;;;6.78;100.00;100921.91;4989206;28;20093;-78
2022/11/28 03:11:07;;;;;;;12.27;4.88;;;;;;;6.78;100.00;100915.88;4992656;28;20503;-78
2022/11/28 03:13:44;;;;;;;8.90;4.72;;;;;;;6.80;100.00;100922.75;4989837;28;20030;-79
2022/11/28 03:16:09;;;;;;;11.73;5.18;;;;;;;6.80;100.00;100920.19;4983897;28;20261;-79
2022/11/28 03:18:41;;;;;;;9.13;4.87;;;;;;;6.81;100.00;100919.31;4991362;28;20422;-79
2022/11/28 03:21:14;;;;;;;10.13;4.93;;;;;;;6.80;100.00;100917.59;4992995;28;20297;-79
2022/11/28 03:23:47;;;;;;;12.95;5.07;;;;;;;6.81;100.00;100921.03;4991335;28;20056;-79
2022/11/28 03:26:29;;;;;;;10.00;5.43;;;;;;;6.83;100.00;100921.84;4985843;28;20022;-79
2022/11/28 03:29:01;;;;;;;9.70;5.07;;;;;;;6.82;100.00;100913.31;4991772;28;20032;-79
2022/11/28 03:31:33;;;;;;;10.70;4.90;;;;;;;6.83;100.00;100917.56;4992049;28;20073;-79
2022/11/28 03:34:01;;;;;;;11.48;4.85;;;;;;;6.82;100.00;100917.59;4993345;28;20109;-79
2022/11/28 03:36:35;;;;;;;11.02;5.10;;;;;;;6.82;100.00;100921.03;4988511;28;20030;-79
2022/11/28 03:39:07;;;;;;;10.02;4.85;;;;;;;6.79;100.00;100915.88;4975847;28;20027;-79
2022/11/28 03:41:40;;;;;;;10.15;4.68;;;;;;;6.79;100.00;100918.47;4993090;28;20030;-79
2022/11/28 03:44:12;;;;;;;9.35;4.88;;;;;;;6.79;100.00;100918.47;4992023;28;20022;-79
2022/11/28 03:46:43;;;;;;;10.85;4.95;;;;;;;6.79;100.00;100917.59;4990892;28;20034;-79
2022/11/28 03:49:12;;;;;;;10.68;4.78;;;;;;;6.78;100.00;100918.47;4990382;28;20034;-79
2022/11/28 03:52:03;;;;;;;10.27;5.18;;;;;;;6.79;100.00;100918.47;4992275;28;20026;-79
2022/11/28 03:54:42;;;;;;;11.85;5.13;;;;;;;6.79;100.00;100913.31;4993177;28;20527;-79
2022/11/28 03:57:11;;;;;;;9.98;5.18;;;;;;;6.80;100.00;100915.03;4991562;28;20493;-79
2022/11/28 03:59:42;;;;;;;9.13;4.80;;;;;;;6.81;100.00;100911.59;4991648;28;20397;-79
2022/11/28 04:02:49;;;;;;;9.88;5.53;;;;;;;6.83;100.00;100919.28;4991393;28;20094;-79
2022/11/28 04:05:30;;;;;;;8.98;4.97;;;;;;;6.81;100.00;100915.88;4938086;28;20042;-79
2022/11/28 04:08:13;;;;;;;8.90;4.90;;;;;;;6.83;100.00;100921.84;4992350;28;20130;-79
2022/11/28 04:10:46;;;;;;;11.15;5.28;;;;;;;6.82;100.00;100917.59;4986569;28;20113;-79
2022/11/28 04:13:18;;;;;;;10.97;5.40;;;;;;;6.83;100.00;100920.13;4988300;28;20034;-79
2022/11/28 04:15:46;;;;;;;11.10;5.38;;;;;;;6.81;100.00;100916.72;4991764;28;20014;-79
2022/11/28 04:18:52;;;;;;;11.63;5.05;;;;;;;6.83;100.00;100924.44;4990852;28;20030;-79
2022/11/28 04:21:36;;;;;;;11.00;4.55;;;;;;;6.82;100.00;100909.88;4988318;28;20041;-79
2022/11/28 04:24:07;;;;;;;9.90;5.05;;;;;;;6.79;100.00;100918.47;4990313;28;20106;-79
2022/11/28 04:26:35;;;;;;;10.95;4.97;;;;;;;6.77;100.00;100903.88;4989773;28;20030;-80
2022/11/28 04:29:06;;;;;;;13.23;5.88;;;;;;;6.79;100.00;100913.31;4972098;28;20022;-80
2022/11/28 04:31:32;;;;;;;12.73;5.15;;;;;;;6.79;100.00;100920.19;4991248;28;20395;-80
2022/11/28 04:34:04;;;;;;;10.32;5.32;;;;;;;6.77;100.00;100915.03;4989600;28;20026;-80
2022/11/28 04:36:31;;;;;;;10.82;5.28;;;;;;;6.79;100.00;100915.03;4989058;28;20406;-80
2022/11/28 04:38:59;;;;;;;13.07;5.50;;;;;;;6.79;100.00;100921.03;4977242;28;20022;-80
2022/11/28 04:41:51;;;;;;;10.38;5.80;;;;;;;6.80;100.00;100915.03;4991472;28;20030;-81
2022/11/28 04:44:40;;;;;;;12.05;5.45;;;;;;;6.80;100.00;100914.16;4984013;28;20043;-81
2022/11/28 04:47:06;;;;;;;10.18;5.35;;;;;;;6.77;100.00;100920.19;4989137;28;20027;-81
2022/11/28 04:49:31;;;;;;;12.70;5.55;;;;;;;6.77;100.00;100920.19;4991727;28;20038;-81
2022/11/28 04:52:11;;;;;;;11.88;5.72;;;;;;;6.77;100.00;100914.16;4990977;28;20425;-81
2022/11/28 04:54:56;;;;;;;11.80;5.50;;;;;;;6.79;100.00;100918.47;4991316;28;20034;-81
2022/11/28 04:57:47;;;;;;;10.02;5.07;;;;;;;6.78;100.00;100916.75;4991101;28;20038;-81
2022/11/28 05:00:15;;;;;;;13.52;5.50;;;;;;;6.78;100.00;100916.75;4982826;28;20038;-81
2022/11/28 05:02:43;;;;;;;12.23;5.85;;;;;;;6.79;100.00;100913.31;4991440;28;20392;-81
2022/11/28 05:05:19;;;;;;;11.68;5.43;;;;;;;6.78;100.00;100914.16;4990853;28;20054;-81
2022/11/28 05:07:44;;;;;;;14.15;5.70;;;;;;;6.80;100.00;100916.75;4989791;28;20117;-81
2022/11/28 05:10:12;;;;;;;10.32;5.18;;;;;;;6.78;100.00;100921.91;4991125;28;20445;-81
2022/11/28 05:12:37;;;;;;;12.23;5.68;;;;;;;6.77;100.00;100924.47;4985488;28;20034;-81
2022/11/28 05:15:03;;;;;;;10.90;5.50;;;;;;;6.79;100.00;100927.91;4988636;28;20077;-81
2022/11/28 05:17:29;;;;;;;10.50;5.22;;;;;;;6.80;100.00;100925.31;4987020;28;20061;-81
2022/11/28 05:19:55;;;;;;;12.60;5.85;;;;;;;6.81;100.00;100932.19;4990086;28;20052;-81
2022/11/28 05:22:20;;;;;;;12.88;5.32;;;;;;;6.80;100.00;100922.75;4990102;28;20485;-81
2022/11/28 05:24:45;;;;;;;12.93;5.63;;;;;;;6.81;100.00;100927.03;4990876;28;20033;-81
2022/11/28 05:27:11;;;;;;;10.98;5.68;;;;;;;6.80;100.00;100933.06;4990562;28;20029;-81
2022/11/28 05:29:36;;;;;;;12.48;5.40;;;;;;;6.81;100.00;100932.19;4989043;28;20095;-81
2022/11/28 05:32:03;;;;;;;9.88;5.63;;;;;;;6.81;100.00;100934.78;4990997;28;20030;-81
2022/11/28 05:34:29;;;;;;;11.50;5.45;;;;;;;6.82;100.00;100935.63;4989476;28;20497;-81
2022/11/28 05:36:56;;;;;;;11.27;5.80;;;;;;;6.83;100.00;100937.31;4990030;28;20030;-81
2022/11/28 05:39:22;;;;;;;9.93;5.07;;;;;;;6.82;100.00;100933.91;4990639;28;20026;-81
2022/11/28 05:41:47;;;;;;;12.55;5.90;;;;;;;6.85;100.00;100938.16;4989927;28;20408;-81
2022/11/28 05:44:13;;;;;;;12.40;5.95;;;;;;;6.84;100.00;100941.59;4990593;28;20409;-81
2022/11/28 05:46:38;;;;;;;10.63;5.35;;;;;;;6.84;100.00;100941.59;4990030;28;20066;-81
2022/11/28 05:49:03;;;;;;;11.25;5.50;;;;;;;6.85;100.00;100936.44;4967686;28;20114;-81
2022/11/28 05:51:29;;;;;;;9.45;4.93;;;;;;;6.84;100.00;100936.44;4989703;28;20073;-81
2022/11/28 05:53:54;;;;;;;11.75;5.80;;;;;;;6.86;100.00;100938.16;4990029;28;20034;-81
2022/11/28 05:56:23;;;;;;;10.05;5.32;;;;;;;6.85;100.00;100944.16;4988534;28;20037;-81
2022/11/28 05:58:49;;;;;;;10.68;5.57;;;;;;;6.88;100.00;100943.31;4987352;28;20068;-81
2022/11/28 06:01:20;;;;;;;11.15;5.53;;;;;;;6.86;100.00;100938.16;4989072;28;20081;-81
2022/11/28 06:03:46;;;;;;;10.60;5.60;;;;;;;6.87;100.00;100933.88;4988867;28;20022;-81
2022/11/28 06:06:20;;;;;;;13.18;5.53;;;;;;;6.88;100.00;100935.59;4988056;28;20409;-81
2022/11/28 06:08:47;;;;;;;12.63;5.45;;;;;;;6.88;100.00;100933.00;4983500;28;20576;-81
2022/11/28 06:11:13;;;;;;;11.80;5.85;;;;;;;6.88;100.00;100933.00;4989894;28;20416;-81
2022/11/28 06:13:40;;;;;;;10.27;5.65;;;;;;;6.88;100.00;100935.59;4969577;28;20022;-81
2022/11/28 06:16:07;;;;;;;9.93;5.35;;;;;;;6.88;100.00;100933.00;4964236;28;20489;-81
2022/11/28 06:18:33;;;;;;;11.90;5.57;;;;;;;6.88;100.00;100927.84;4987085;28;20472;-81
2022/11/28 06:21:02;;;;;;;9.80;5.28;;;;;;;6.90;100.00;100934.69;4994909;28;20484;-81
2022/11/28 06:23:28;;;;;;;10.82;5.63;;;;;;;6.89;100.00;100940.69;4985193;28;20073;-81
2022/11/28 06:25:53;;;;;;;11.77;5.90;;;;;;;6.89;100.00;100935.53;4986175;28;20022;-81
2022/11/28 06:28:18;;;;;;;11.20;5.80;;;;;;;6.91;100.00;100941.56;4985100;28;20388;-81
2022/11/28 06:30:44;;;;;;;9.27;5.88;;;;;;;6.91;100.00;100943.28;4989983;28;20026;-81
2022/11/28 06:33:09;;;;;;;13.02;5.93;;;;;;;6.91;100.00;100941.56;4989215;28;20115;-81
2022/11/28 06:35:35;;;;;;;12.40;6.25;;;;;;;6.91;100.00;100945.84;4984136;28;20057;-81
2022/11/28 06:38:00;;;;;;;10.65;6.28;;;;;;;6.94;100.00;100954.44;4986608;28;20022;-81
2022/11/28 06:40:25;;;;;;;11.68;6.15;;;;;;;6.94;100.00;100951.84;4990880;28;20026;-81
2022/11/28 06:42:51;;;;;;;11.55;5.93;;;;;;;6.93;100.00;100954.44;4989282;28;20069;-81
2022/11/28 06:45:16;;;;;;;12.15;6.38;;;;;;;6.95;100.00;100956.16;4985431;28;20132;-81
2022/11/28 06:47:42;;;;;;;10.70;6.30;;;;;;;6.95;100.00;100957.88;4989463;28;20018;-81
2022/11/28 06:50:08;;;;;;;11.02;6.38;;;;;;;6.98;100.00;100956.09;4989896;28;20064;-81
2022/11/28 06:52:34;;;;;;;12.95;6.60;;;;;;;6.96;100.00;100957.81;4989923;28;20109;-81
2022/11/28 06:55:00;;;;;;;15.35;6.78;;;;;;;6.97;100.00;100956.97;4989361;28;20448;-81
2022/11/28 06:57:25;;;;;;;11.60;6.35;;;;;;;6.98;100.00;100955.25;4989649;28;20477;-81
2022/11/28 06:59:51;;;;;;;13.82;7.05;;;;;;;6.98;100.00;100960.41;4992770;28;20037;-81
2022/11/28 07:02:16;;;;;;;13.82;6.57;;;;;;;6.99;100.00;100955.25;4995829;28;20030;-81
2022/11/28 07:04:41;;;;;;;14.60;7.43;;;;;;;6.98;100.00;100956.09;4989831;28;20038;-81
2022/11/28 07:07:06;;;;;;;14.65;7.50;;;;;;;7.00;100.00;100954.38;4988364;28;20037;-81
2022/11/28 07:09:32;;;;;;;14.30;7.53;;;;;;;7.01;100.00;100961.25;4990524;28;20050;-81
2022/11/28 07:11:57;;;;;;;14.43;7.32;;;;;;;7.00;100.00;100950.94;4995256;28;20030;-81
2022/11/28 07:14:22;;;;;;;14.60;6.80;;;;;;;7.02;100.00;100956.94;4992726;28;20030;-81
2022/11/28 07:16:48;;;;;;;13.70;6.85;;;;;;;7.03;100.00;100966.38;4984495;28;20030;-81
2022/11/28 07:19:14;;;;;;;11.85;6.90;;;;;;;7.03;100.00;100958.63;4989665;28;20108;-81
2022/11/28 07:21:40;;;;;;;14.65;7.35;;;;;;;7.04;100.00;100965.50;4990440;28;20046;-81
2022/11/28 07:24:06;;;;;;;13.20;7.60;;;;;;;7.04;100.00;100958.63;4989446;28;20038;-81
2022/11/28 07:26:31;;;;;;;14.65;7.10;;;;;;;7.01;100.00;100958.66;4989435;28;20270;-81
2022/11/28 07:28:58;;;;;;;13.02;7.10;;;;;;;7.05;100.00;100964.66;4993771;28;20026;-81
2022/11/28 07:31:25;;;;;;;13.82;7.13;;;;;;;7.05;100.00;100973.22;4989309;28;20085;-80
2022/11/28 07:33:51;;;;;;;17.73;8.38;;;;;;;7.06;100.00;100968.94;4988113;28;20109;-81
2022/11/28 07:36:22;;;;;;;15.63;7.82;;;;;;;7.06;100.00;100969.78;4989607;28;20114;-81
2022/11/28 07:38:53;;;;;;;13.98;7.82;;;;;;;7.08;100.00;100969.78;4982386;28;20043;-81
2022/11/28 07:41:18;;;;;;;17.25;7.60;;;;;;;7.06;100.00;100974.94;4990500;28;20080;-81
2022/11/28 07:43:46;;;;;;;14.48;8.15;;;;;;;7.08;100.00;100974.94;4990369;28;20027;-81
2022/11/28 07:46:14;;;;;;;16.02;8.25;;;;;;;7.09;100.00;100979.25;4993143;28;20047;-81
2022/11/28 07:48:39;;;;;;;14.20;7.57;;;;;;;7.07;100.00;100986.97;4988503;28;20049;-81
2022/11/28 07:51:14;;;;;;;14.77;8.25;;;;;;;7.08;100.00;100980.97;4972281;28;20022;-81
2022/11/28 07:53:40;;;;;;;15.65;8.40;;;;;;;7.10;100.00;100992.09;4993615;28;20061;-81
2022/11/28 07:56:12;;;;;;;18.05;8.38;;;;;;;7.11;100.00;100995.53;4992625;28;20042;-81
2022/11/28 07:58:37;;;;;;;18.23;8.23;;;;;;;7.09;100.00;100994.69;4985855;28;20065;-81
2022/11/28 08:01:11;;;;;;;16.15;8.00;;;;;;;7.10;100.00;100997.25;4993844;28;20026;-81
2022/11/28 08:03:37;;;;;;;18.42;8.55;;;;;;;7.11;100.00;100995.53;4990987;28;20030;-80
2022/11/28 08:06:03;;;;;;;17.90;8.95;;;;;;;7.11;100.00;101004.13;4993578;28;20022;-80
2022/11/28 08:08:28;;;;;;;17.75;8.02;;;;;;;7.12;100.00;101000.69;4990120;28;20066;-80
2022/11/28 08:11:02;;;;;;;21.13;9.23;;;;;;;7.13;100.00;100999.81;4993397;28;20033;-80
2022/11/28 08:13:27;;;;;;;18.00;8.77;;;;;;;7.13;100.00;100998.97;4992962;28;20460;-80
2022/11/28 08:15:53;;;;;;;17.33;8.73;;;;;;;7.16;100.00;100995.50;4992539;28;20492;-80
2022/11/28 08:18:18;;;;;;;20.30;9.23;;;;;;;7.16;100.00;101001.53;4993131;28;20022;-80
2022/11/28 08:20:44;;;;;;;19.42;9.68;;;;;;;7.17;100.00;101004.94;4993219;28;20471;-80
2022/11/28 08:23:09;;;;;;;18.92;9.00;;;;;;;7.14;100.00;101001.53;4993037;28;20485;-81
2022/11/28 08:25:34;;;;;;;19.67;9.35;;;;;;;7.19;100.00;101003.22;4993297;28;20045;-81
2022/11/28 08:28:00;;;;;;;18.77;9.07;;;;;;;7.21;100.00;101001.47;4991212;28;20022;-81
2022/11/28 08:30:25;;;;;;;23.33;10.15;;;;;;;7.21;100.00;100999.75;4993046;28;20612;-81
2022/11/28 08:32:51;;;;;;;21.88;9.88;;;;;;;7.23;100.00;100997.19;4975447;28;20089;-81
2022/11/28 08:35:16;;;;;;;19.10;9.98;;;;;;;7.26;100.00;101005.72;4993016;28;20022;-81
2022/11/28 08:37:42;;;;;;;20.52;9.63;;;;;;;7.28;100.00;101005.72;4992124;28;20130;-81
2022/11/28 08:40:07;;;;;;;21.65;10.07;;;;;;;7.30;100.00;101004.00;4992060;28;20518;-81
2022/11/28 08:42:33;;;;;;;22.85;10.57;;;;;;;7.34;100.00;101008.25;4991574;28;20113;-81
2022/11/28 08:44:59;;;;;;;21.42;10.55;;;;;;;7.35;100.00;101015.13;4992952;28;20106;-81
2022/11/28 08:47:24;;;;;;;23.55;10.57;;;;;;;7.40;100.00;101015.94;4992559;28;20018;-81
2022/11/28 08:49:49;;;;;;;23.10;10.95;;;;;;;7.42;100.00;101015.06;4992860;28;20072;-81
2022/11/28 08:52:15;;;;;;;19.02;10.20;;;;;;;7.46;100.00;101019.31;4991240;28;20081;-78
2022/11/28 08:54:40;;;;;;;22.58;10.43;;;;;;;7.48;100.00;101019.31;4992730;28;20084;-81
2022/11/28 08:57:06;;;;;;;22.50;10.80;;;;;;;7.49;100.00;101010.72;4990552;28;20378;-80
2022/11/28 08:59:31;;;;;;;22.05;10.73;;;;;;;7.51;100.00;101011.53;4990992;28;20029;-79
2022/11/28 09:01:56;;;;;;;21.98;10.77;;;;;;;7.53;100.00;101009.81;4992132;28;20030;-79
2022/11/28 09:04:22;;;;;;;21.42;10.30;;;;;;;7.53;100.00;101013.25;4992496;28;20547;-79
2022/11/28 09:06:48;;;;;;;20.67;10.27;;;;;;;7.58;100.00;101010.63;4991576;28;20375;-79
2022/11/28 09:09:14;;;;;;;22.15;10.43;;;;;;;7.61;100.00;101017.47;4992703;28;20057;-79
2022/11/28 09:11:39;;;;;;;20.52;10.52;;;;;;;7.63;100.00;101008.00;4990953;28;20026;-79
2022/11/28 09:14:05;;;;;;;21.90;10.15;;;;;;;7.65;100.00;101014.00;4989352;28;20045;-79
2022/11/28 09:16:30;;;;;;;20.90;10.13;;;;;;;7.67;100.00;101017.44;4991355;28;20412;-79
2022/11/28 09:18:58;;;;;;;20.92;10.05;;;;;;;7.67;100.00;101023.44;4992091;28;20022;-79
2022/11/28 09:21:24;;;;;;;19.92;10.20;;;;;;;7.70;100.00;101026.00;4992086;28;20018;-79
2022/11/28 09:23:54;;;;;;;22.92;10.35;;;;;;;7.69;100.00;101020.84;4992009;28;20475;-79
2022/11/28 09:26:21;;;;;;;20.83;10.18;;;;;;;7.71;100.00;101027.69;4992034;28;20057;-79
2022/11/28 09:28:47;;;;;;;22.13;9.55;;;;;;;7.75;100.00;101023.38;4991665;28;20030;-79
2022/11/28 09:31:14;;;;;;;21.63;10.55;;;;;;;7.76;100.00;101030.25;4973974;28;20060;-79
2022/11/28 09:33:40;;;;;;;23.85;10.98;;;;;;;7.77;100.00;101035.41;4991913;28;20022;-79
2022/11/28 09:36:13;;;;;;;21.50;10.50;;;;;;;7.80;100.00;101027.63;4991317;28;20033;-79
2022/11/28 09:38:38;;;;;;;20.63;10.00;;;;;;;7.84;100.00;101029.31;4991877;28;20392;-79
2022/11/28 09:41:29;;;;;;;25.60;11.38;;;;;;;7.85;100.00;101028.41;4992001;28;20551;-79
2022/11/28 09:44:01;;;;;;;26.23;10.50;;;;;;;7.85;100.00;101025.84;4991191;28;20412;-79
2022/11/28 09:46:31;;;;;;;23.00;10.15;;;;;;;7.86;100.00;101030.13;4991880;28;20109;-79
2022/11/28 09:49:01;;;;;;;22.17;10.30;;;;;;;7.90;100.00;101030.97;4991978;28;20022;-79
2022/11/28 09:51:33;;;;;;;24.58;10.77;;;;;;;7.93;100.00;101034.38;4986989;28;20038;-79
2022/11/28 09:54:12;;;;;;;26.17;10.13;;;;;;;7.99;100.00;101040.34;4992058;28;20037;-79
2022/11/28 09:56:38;;;;;;;24.15;10.57;;;;;;;8.00;100.00;101042.06;4991370;28;20019;-79
2022/11/28 09:59:07;;;;;;;25.00;10.70;;;;;;;8.01;100.00;101042.03;4988945;28;20440;-79
2022/11/28 10:01:38;;;;;;;23.02;11.30;;;;;;;8.04;100.00;101041.16;4991402;28;20109;-79
2022/11/28 10:04:15;;;;;;;21.70;10.60;;;;;;;8.07;100.00;101039.41;4990560;28;20414;-79
2022/11/28 10:07:16;;;;;;;21.63;10.55;;;;;;;8.10;100.00;101034.22;4989039;28;20168;-79
2022/11/28 10:10:14;;;;;;;21.63;10.40;;;;;;;8.14;100.00;101035.03;4990930;28;20041;-79
2022/11/28 10:13:10;;;;;;;23.05;10.18;;;;;;;8.15;100.00;101029.84;4968378;28;20038;-79
2022/11/28 10:15:49;;;;;;;22.20;9.93;;;;;;;8.15;100.00;101045.34;4991723;28;20034;-79
2022/11/28 10:18:40;;;;;;;23.92;10.90;;;;;;;8.17;100.00;101038.44;4990549;28;20113;-80
2022/11/28 10:21:30;;;;;;;25.27;10.18;;;;;;;8.18;100.00;101029.81;4973869;28;20061;-79
2022/11/28 10:24:18;;;;;;;22.85;10.40;;;;;;;8.23;100.00;101030.63;4988393;28;20393;-79
2022/11/28 10:26:47;;;;;;;21.25;9.65;;;;;;;8.25;100.00;101035.78;4991034;28;20044;-79
2022/11/28 10:29:19;;;;;;;21.08;9.98;;;;;;;8.28;100.00;101030.56;4991474;28;20026;-79
2022/11/28 10:31:45;;;;;;;23.67;9.82;;;;;;;8.30;100.00;101029.72;4990341;28;20117;-79
2022/11/28 10:34:18;;;;;;;21.30;9.80;;;;;;;8.31;100.00;101030.56;4989006;28;20401;-79
2022/11/28 10:36:55;;;;;;;24.25;10.35;;;;;;;8.29;100.00;101030.56;4989923;28;20034;-78
2022/11/28 10:39:24;;;;;;;21.83;9.68;;;;;;;8.31;100.00;101038.31;4990889;28;20022;-78
2022/11/28 10:42:19;;;;;;;22.30;10.02;;;;;;;8.34;100.00;101033.09;4990814;28;20161;-78
2022/11/28 10:45:26;;;;;;;20.08;9.30;;;;;;;8.37;100.00;101034.81;4965626;28;20456;-78
2022/11/28 10:48:10;;;;;;;22.42;9.68;;;;;;;8.40;100.00;101030.44;4982786;28;20121;-78
2022/11/28 10:50:48;;;;;;;20.30;8.90;;;;;;;8.43;100.00;101038.19;4990339;28;20034;-78
2022/11/28 10:53:36;;;;;;;20.38;9.63;;;;;;;8.43;100.00;101038.19;4972727;28;20489;-78
2022/11/28 10:56:19;;;;;;;23.45;10.20;;;;;;;8.43;100.00;101045.94;4991197;28;20555;-78
2022/11/28 10:59:00;;;;;;;23.58;9.60;;;;;;;8.41;100.00;101042.50;4990647;28;20481;-78
2022/11/28 11:01:36;;;;;;;21.83;10.07;;;;;;;8.41;100.00;101039.91;4990823;28;20026;-78
2022/11/28 11:04:02;;;;;;;24.00;10.40;;;;;;;8.38;100.00;101042.53;4991199;28;20058;-78
2022/11/28 11:06:27;;;;;;;25.30;10.18;;;;;;;8.42;100.00;101038.19;4988951;28;20229;-78
2022/11/28 11:08:53;;;;;;;22.65;9.98;;;;;;;8.42;100.00;101033.88;4990450;28;20109;-78
2022/11/28 11:11:26;;;;;;;25.23;10.07;;;;;;;8.48;100.00;101040.69;4991059;28;20034;-79
2022/11/28 11:14:03;;;;;;;26.23;10.57;;;;;;;8.49;100.00;101045.00;4990832;28;20563;-79
2022/11/28 11:16:46;;;;;;;26.15;10.00;;;;;;;8.51;100.00;101038.94;4991468;28;20026;-79
2022/11/28 11:19:33;;;;;;;27.50;11.37;;;;;;;8.50;100.00;101033.78;4992179;28;20477;-78
2022/11/28 11:22:09;;;;;;;25.85;10.25;;;;;;;8.53;100.00;101036.34;4993996;28;20038;-78
2022/11/28 11:24:34;;;;;;;29.17;10.32;;;;;;;8.54;100.00;101038.88;4994868;28;20033;-78
2022/11/28 11:27:06;;;;;;;26.73;11.45;;;;;;;8.56;100.00;101044.03;4977094;28;20030;-78
2022/11/28 11:29:35;;;;;;;26.63;10.85;;;;;;;8.55;100.00;101032.00;4977187;28;20030;-79
2022/11/28 11:32:05;;;;;;;27.73;11.23;;;;;;;8.56;100.00;101025.97;4994516;28;20030;-79
2022/11/28 11:34:44;;;;;;;25.85;10.82;;;;;;;8.61;100.00;101030.19;4977708;28;20073;-78